Time;durP1;ratioP1;P1;durP2;ratioP2;P2;SDS_P1;SDS_P2;PMS_P1;PMS_P2;Temp;Humidity;BMP_temperature;BMP_pressure;BME280_temperature;BME280_humidity;BME280_pressure;Samples;Min_cycle;Max_cycle;Signal;HPM_P1;HPM_P2
2024/04/08 00:01:10;;;;;;;;;;;;;;;;;;5029551;28;19982;-82
2024/04/08 00:03:36;;;;;;;;;;;;;;;;;;5022585;28;19996;-82
2024/04/08 00:06:03;;;;;;;;;;;;;;;;;;5030680;28;19977;-81
2024/04/08 00:08:29;;;;;;;;;;;;;;;;;;5025952;28;20061;-81
2024/04/08 00:10:56;;;;;;;;;;;;;;;;;;5009462;28;20116;-86
2024/04/08 00:13:22;;;;;;;;;;;;;;;;;;5024063;28;19973;-80
2024/04/08 00:15:49;;;;;;;;;;;;;;;;;;5028796;28;20396;-83
2024/04/08 00:18:15;;;;;;;;;;;;;;;;;;5005825;28;20080;-81
2024/04/08 00:20:42;;;;;;;;;;;;;;;;;;5012168;28;19977;-80
2024/04/08 00:23:08;;;;;;;;;;;;;;;;;;5022347;28;20020;-82
2024/04/08 00:25:35;;;;;;;;;;;;;;;;;;5033613;28;19973;-80
2024/04/08 00:28:01;;;;;;;;;;;;;;;;;;5034165;28;19993;-81
2024/04/08 00:30:28;;;;;;;;;;;;;;;;;;5022058;28;19962;-80
2024/04/08 00:32:54;;;;;;;;;;;;;;;;;;5021626;28;20092;-80
2024/04/08 00:35:21;;;;;;;;;;;;;;;;;;5022742;28;19980;-80
2024/04/08 00:37:48;;;;;;;;;;;;;;;;;;5013233;28;20045;-80
2024/04/08 00:40:15;;;;;;;;;;;;;;;;;;5014599;28;19974;-80
2024/04/08 00:42:41;;;;;;;;;;;;;;;;;;5018977;28;20388;-81
2024/04/08 00:45:08;;;;;;;;;;;;;;;;;;5022929;28;20061;-81
2024/04/08 00:47:34;;;;;;;;;;;;;;;;;;5013358;28;20064;-80
2024/04/08 00:50:01;;;;;;;;;;;;;;;;;;5013602;28;19974;-80
2024/04/08 00:52:26;;;;;;;;;;;;;;;;;;5016249;28;20049;-80
2024/04/08 00:54:53;;;;;;;;;;;;;;;;;;5023660;28;19980;-80
2024/04/08 00:57:19;;;;;;;;;;;;;;;;;;5012031;28;20017;-81
2024/04/08 00:59:47;;;;;;;;;;;;;;;;;;5012791;28;19977;-80
2024/04/08 01:02:13;;;;;;;;;;;;;;;;;;5013946;28;19993;-81
2024/04/08 01:04:40;;;;;;;;;;;;;;;;;;5031714;28;19975;-81
2024/04/08 01:07:05;;;;;;;;;;;;;;;;;;5012426;28;20056;-81
2024/04/08 01:09:32;;;;;;;;;;;;;;;;;;5012096;28;19978;-80
2024/04/08 01:11:58;;;;;;;;;;;;;;;;;;5012042;28;20021;-80
2024/04/08 01:14:25;;;;;;;;;;;;;;;;;;5022423;28;19965;-81
2024/04/08 01:16:51;;;;;;;;;;;;;;;;;;5011328;28;20012;-81
2024/04/08 01:19:23;;;;;;;;;;;;;;;;;;5011971;28;19973;-80
2024/04/08 01:21:49;;;;;;;;;;;;;;;;;;5011231;28;20029;-80
2024/04/08 01:24:16;;;;;;;;;;;;;;;;;;5025891;28;19969;-81
2024/04/08 01:26:42;;;;;;;;;;;;;;;;;;5025242;28;20072;-79
2024/04/08 01:29:09;;;;;;;;;;;;;;;;;;5013363;28;19977;-81
2024/04/08 01:31:35;;;;;;;;;;;;;;;;;;5012582;28;20033;-80
2024/04/08 01:34:02;;;;;;;;;;;;;;;;;;5028805;28;19969;-81
2024/04/08 01:36:29;;;;;;;;;;;;;;;;;;5030148;28;19987;-81
2024/04/08 01:38:56;;;;;;;;;;;;;;;;;;5029862;28;19984;-81
2024/04/08 01:41:22;;;;;;;;;;;;;;;;;;5025480;28;20077;-81
2024/04/08 01:43:49;;;;;;;;;;;;;;;;;;5010105;28;19970;-80
2024/04/08 01:46:15;;;;;;;;;;;;;;;;;;5010419;28;20017;-81
2024/04/08 01:48:42;;;;;;;;;;;;;;;;;;5010956;28;19993;-82
2024/04/08 01:51:09;;;;;;;;;;;;;;;;;;5011139;28;20038;-82
2024/04/08 01:53:36;;;;;;;;;;;;;;;;;;5021745;28;19977;-80
2024/04/08 01:56:02;;;;;;;;;;;;;;;;;;5012869;28;20023;-79
2024/04/08 01:58:29;;;;;;;;;;;;;;;;;;5015957;28;19973;-80
2024/04/08 02:00:55;;;;;;;;;;;;;;;;;;5021764;28;20013;-81
2024/04/08 02:03:22;;;;;;;;;;;;;;;;;;5019034;28;19966;-81
2024/04/08 02:05:48;;;;;;;;;;;;;;;;;;5013919;28;19982;-81
2024/04/08 02:08:15;;;;;;;;;;;;;;;;;;5009404;28;20013;-80
2024/04/08 02:10:41;;;;;;;;;;;;;;;;;;5013811;28;20017;-79
2024/04/08 02:13:08;;;;;;;;;;;;;;;;;;5019234;28;19978;-80
2024/04/08 02:15:33;;;;;;;;;;;;;;;;;;5011776;28;19978;-79
2024/04/08 02:18:00;;;;;;;;;;;;;;;;;;5009911;28;19973;-79
2024/04/08 02:20:26;;;;;;;;;;;;;;;;;;5009580;28;20013;-80
2024/04/08 02:22:53;;;;;;;;;;;;;;;;;;5026335;28;20020;-81
2024/04/08 02:25:20;;;;;;;;;;;;;;;;;;5016221;28;20045;-82
2024/04/08 02:27:47;;;;;;;;;;;;;;;;;;5009032;28;20489;-81
2024/04/08 02:30:13;;;;;;;;;;;;;;;;;;5010226;28;19977;-81
2024/04/08 02:32:40;;;;;;;;;;;;;;;;;;5019383;28;19985;-81
2024/04/08 02:35:06;;;;;;;;;;;;;;;;;;5010653;28;20016;-80
2024/04/08 02:37:32;;;;;;;;;;;;;;;;;;5009633;28;19978;-82
2024/04/08 02:39:58;;;;;;;;;;;;;;;;;;5011249;28;20049;-80
2024/04/08 02:42:25;;;;;;;;;;;;;;;;;;5019617;28;19990;-81
2024/04/08 02:44:51;;;;;;;;;;;;;;;;;;5010637;28;20012;-81
2024/04/08 02:47:18;;;;;;;;;;;;;;;;;;5010415;28;19994;-81
2024/04/08 02:49:44;;;;;;;;;;;;;;;;;;5010963;28;20028;-82
2024/04/08 02:52:11;;;;;;;;;;;;;;;;;;5018921;28;19985;-80
2024/04/08 02:54:37;;;;;;;;;;;;;;;;;;5009967;28;20068;-81
2024/04/08 02:57:04;;;;;;;;;;;;;;;;;;5009222;28;19974;-81
2024/04/08 02:59:30;;;;;;;;;;;;;;;;;;5011622;28;20038;-81
2024/04/08 03:01:57;;;;;;;;;;;;;;;;;;5020835;28;20012;-79
2024/04/08 03:04:24;;;;;;;;;;;;;;;;;;5012728;28;19977;-81
2024/04/08 03:06:51;;;;;;;;;;;;;;;;;;5013830;28;19997;-80
2024/04/08 03:09:17;;;;;;;;;;;;;;;;;;5026778;28;20028;-82
2024/04/08 03:11:44;;;;;;;;;;;;;;;;;;5024173;28;20052;-81
2024/04/08 03:14:10;;;;;;;;;;;;;;;;;;5033321;28;20004;-79
2024/04/08 03:16:37;;;;;;;;;;;;;;;;;;5034075;28;20401;-80
2024/04/08 03:19:03;;;;;;;;;;;;;;;;;;5033167;28;20015;-81
2024/04/08 03:21:30;;;;;;;;;;;;;;;;;;5027696;28;19994;-80
2024/04/08 03:23:57;;;;;;;;;;;;;;;;;;5017515;28;20048;-82
2024/04/08 03:26:24;;;;;;;;;;;;;;;;;;5014418;28;20037;-81
2024/04/08 03:28:51;;;;;;;;;;;;;;;;;;5013717;28;20027;-80
2024/04/08 03:31:18;;;;;;;;;;;;;;;;;;5020077;28;20349;-80
2024/04/08 03:33:44;;;;;;;;;;;;;;;;;;5025783;28;20044;-80
2024/04/08 03:36:11;;;;;;;;;;;;;;;;;;5025889;28;19972;-81
2024/04/08 03:38:38;;;;;;;;;;;;;;;;;;5025966;28;19978;-82
2024/04/08 03:41:05;;;;;;;;;;;;;;;;;;5027125;28;20032;-81
2024/04/08 03:43:32;;;;;;;;;;;;;;;;;;5025796;28;19977;-80
2024/04/08 03:45:58;;;;;;;;;;;;;;;;;;5026947;28;19970;-81
2024/04/08 03:48:25;;;;;;;;;;;;;;;;;;5030073;28;19988;-80
2024/04/08 03:50:51;;;;;;;;;;;;;;;;;;5013970;28;20490;-82
2024/04/08 03:53:18;;;;;;;;;;;;;;;;;;5027646;28;19978;-81
2024/04/08 03:55:45;;;;;;;;;;;;;;;;;;5014399;28;20049;-81
2024/04/08 03:58:12;;;;;;;;;;;;;;;;;;5018096;28;19966;-81
2024/04/08 04:00:38;;;;;;;;;;;;;;;;;;5023029;28;20050;-80
2024/04/08 04:03:04;;;;;;;;;;;;;;;;;;5030666;28;19989;-81
2024/04/08 04:05:30;;;;;;;;;;;;;;;;;;5018627;28;20015;-81
2024/04/08 04:07:57;;;;;;;;;;;;;;;;;;5020832;28;19994;-80
2024/04/08 04:10:23;;;;;;;;;;;;;;;;;;5014945;28;20445;-80
2024/04/08 04:12:50;;;;;;;;;;;;;;;;;;5024792;28;19993;-80
2024/04/08 04:15:16;;;;;;;;;;;;;;;;;;5030450;28;20052;-81
2024/04/08 04:17:43;;;;;;;;;;;;;;;;;;5023054;28;19981;-81
2024/04/08 04:20:09;;;;;;;;;;;;;;;;;;5024819;28;19976;-80
2024/04/08 04:22:36;;;;;;;;;;;;;;;;;;5020324;28;20029;-81
2024/04/08 04:25:02;;;;;;;;;;;;;;;;;;5021531;28;20240;-80
2024/04/08 04:27:29;;;;;;;;;;;;;;;;;;5017905;28;19996;-81
2024/04/08 04:29:55;;;;;;;;;;;;;;;;;;5026429;28;19993;-79
2024/04/08 04:32:22;;;;;;;;;;;;;;;;;;5023558;28;19992;-79
2024/04/08 04:34:48;;;;;;;;;;;;;;;;;;5013918;28;19974;-80
2024/04/08 04:37:15;;;;;;;;;;;;;;;;;;5013138;28;20004;-79
2024/04/08 04:39:41;;;;;;;;;;;;;;;;;;5030111;28;19993;-81
2024/04/08 04:42:08;;;;;;;;;;;;;;;;;;5028493;28;19993;-82
2024/04/08 04:44:34;;;;;;;;;;;;;;;;;;5024392;28;19977;-81
2024/04/08 04:47:01;;;;;;;;;;;;;;;;;;5017659;28;19976;-82
2024/04/08 04:49:27;;;;;;;;;;;;;;;;;;5011120;28;19981;-81
2024/04/08 04:51:54;;;;;;;;;;;;;;;;;;5020472;28;20000;-81
2024/04/08 04:54:20;;;;;;;;;;;;;;;;;;5009001;28;19985;-81
2024/04/08 04:56:47;;;;;;;;;;;;;;;;;;5014762;28;19966;-83
2024/04/08 04:59:13;;;;;;;;;;;;;;;;;;5013052;28;19976;-83
2024/04/08 05:01:40;;;;;;;;;;;;;;;;;;5014067;28;20357;-83
2024/04/08 05:04:08;;;;;;;;;;;;;;;;;;5015878;28;19982;-83
2024/04/08 05:06:35;;;;;;;;;;;;;;;;;;5015251;28;19978;-83
2024/04/08 05:09:02;;;;;;;;;;;;;;;;;;5020715;28;19993;-84
2024/04/08 05:11:29;;;;;;;;;;;;;;;;;;5021354;28;20052;-85
2024/04/08 05:13:55;;;;;;;;;;;;;;;;;;5020752;28;20037;-84
2024/04/08 05:16:22;;;;;;;;;;;;;;;;;;5021802;28;19965;-85
2024/04/08 05:18:48;;;;;;;;;;;;;;;;;;5014278;28;20057;-84
2024/04/08 05:21:15;;;;;;;;;;;;;;;;;;5020965;28;19993;-82
2024/04/08 05:23:44;;;;;;;;;;;;;;;;;;5021539;28;20000;-82
2024/04/08 05:26:11;;;;;;;;;;;;;;;;;;5023228;28;19971;-82
2024/04/08 05:28:37;;;;;;;;;;;;;;;;;;5019415;28;20057;-82
2024/04/08 05:31:04;;;;;;;;;;;;;;;;;;5019952;28;19986;-83
2024/04/08 05:33:30;;;;;;;;;;;;;;;;;;5019746;28;19976;-82
2024/04/08 05:35:57;;;;;;;;;;;;;;;;;;5021156;28;19969;-83
2024/04/08 05:38:24;;;;;;;;;;;;;;;;;;5020090;28;19997;-83
2024/04/08 05:40:51;;;;;;;;;;;;;;;;;;5023483;28;19965;-82
2024/04/08 05:43:17;;;;;;;;;;;;;;;;;;5019118;28;20264;-83
2024/04/08 05:45:44;;;;;;;;;;;;;;;;;;5023179;28;19966;-83
2024/04/08 05:48:10;;;;;;;;;;;;;;;;;;5017123;28;20326;-82
2024/04/08 05:50:37;;;;;;;;;;;;;;;;;;5015185;28;19969;-82
2024/04/08 05:53:03;;;;;;;;;;;;;;;;;;5014525;28;20072;-82
2024/04/08 05:55:31;;;;;;;;;;;;;;;;;;5013921;28;19970;-83
2024/04/08 05:57:57;;;;;;;;;;;;;;;;;;5015061;28;19970;-82
2024/04/08 06:00:24;;;;;;;;;;;;;;;;;;5014040;28;20028;-82
2024/04/08 06:02:52;;;;;;;;;;;;;;;;;;5015325;28;20056;-82
2024/04/08 06:05:19;;;;;;;;;;;;;;;;;;5016240;28;19970;-82
2024/04/08 06:07:48;;;;;;;;;;;;;;;;;;5013135;28;20084;-82
2024/04/08 06:10:15;;;;;;;;;;;;;;;;;;5018055;28;20033;-83
2024/04/08 06:12:41;;;;;;;;;;;;;;;;;;5013406;28;20073;-83
2024/04/08 06:15:08;;;;;;;;;;;;;;;;;;5023560;28;19965;-82
2024/04/08 06:17:34;;;;;;;;;;;;;;;;;;5017615;28;20016;-82
2024/04/08 06:20:01;;;;;;;;;;;;;;;;;;5014980;28;19978;-82
2024/04/08 06:22:27;;;;;;;;;;;;;;;;;;5012286;28;19993;-81
2024/04/08 06:24:54;;;;;;;;;;;;;;;;;;5017272;28;19985;-82
2024/04/08 06:27:20;;;;;;;;;;;;;;;;;;5018095;28;20023;-82
2024/04/08 06:29:47;;;;;;;;;;;;;;;;;;5012540;28;19969;-82
2024/04/08 06:32:13;;;;;;;;;;;;;;;;;;5006233;28;19985;-82
2024/04/08 06:34:40;;;;;;;;;;;;;;;;;;5008666;28;20019;-83
2024/04/08 06:37:06;;;;;;;;;;;;;;;;;;5011366;28;19980;-81
2024/04/08 06:39:33;;;;;;;;;;;;;;;;;;5017211;28;20009;-82
2024/04/08 06:41:59;;;;;;;;;;;;;;;;;;5012596;28;19985;-82
2024/04/08 06:44:26;;;;;;;;;;;;;;;;;;5013289;28;20004;-82
2024/04/08 06:46:52;;;;;;;;;;;;;;;;;;5015885;28;20068;-81
2024/04/08 06:49:19;;;;;;;;;;;;;;;;;;5017328;28;20021;-82
2024/04/08 06:51:45;;;;;;;;;;;;;;;;;;5019676;28;20056;-82
2024/04/08 06:54:12;;;;;;;;;;;;;;;;;;5021273;28;19965;-82
2024/04/08 06:56:39;;;;;;;;;;;;;;;;;;5016293;28;19973;-81
2024/04/08 06:59:05;;;;;;;;;;;;;;;;;;5006710;28;19974;-82
2024/04/08 07:01:33;;;;;;;;;;;;;;;;;;5005968;28;20107;-81
2024/04/08 07:03:59;;;;;;;;;;;;;;;;;;5006410;28;20015;-81
2024/04/08 07:06:26;;;;;;;;;;;;;;;;;;5008006;28;20390;-82
2024/04/08 07:08:52;;;;;;;;;;;;;;;;;;5004380;28;19997;-82
2024/04/08 07:11:19;;;;;;;;;;;;;;;;;;5022050;28;19993;-83
2024/04/08 07:13:44;;;;;;;;;;;;;;;;;;5005945;28;19974;-81
2024/04/08 07:16:11;;;;;;;;;;;;;;;;;;5002427;28;19984;-81
2024/04/08 07:18:37;;;;;;;;;;;;;;;;;;5002249;28;19983;-82
2024/04/08 07:21:04;;;;;;;;;;;;;;;;;;5002713;28;20136;-82
2024/04/08 07:23:30;;;;;;;;;;;;;;;;;;5013077;28;20045;-82
2024/04/08 07:25:57;;;;;;;;;;;;;;;;;;5005495;28;20045;-83
2024/04/08 07:28:23;;;;;;;;;;;;;;;;;;5002457;28;20441;-82
2024/04/08 07:30:50;;;;;;;;;;;;;;;;;;5003627;28;20035;-84
2024/04/08 07:33:16;;;;;;;;;;;;;;;;;;5010800;28;20003;-80
2024/04/08 07:35:43;;;;;;;;;;;;;;;;;;5017267;28;20064;-82
2024/04/08 07:38:09;;;;;;;;;;;;;;;;;;5018794;28;19984;-80
2024/04/08 07:40:36;;;;;;;;;;;;;;;;;;5016188;28;20001;-82
2024/04/08 07:43:02;;;;;;;;;;;;;;;;;;5018403;28;19990;-82
2024/04/08 07:45:29;;;;;;;;;;;;;;;;;;5019628;28;20031;-82
2024/04/08 07:47:55;;;;;;;;;;;;;;;;;;5000212;28;19996;-82
2024/04/08 07:50:22;;;;;;;;;;;;;;;;;;4999478;28;20056;-82
2024/04/08 07:52:48;;;;;;;;;;;;;;;;;;5017531;28;20068;-82
2024/04/08 07:55:14;;;;;;;;;;;;;;;;;;4998392;28;20005;-81
2024/04/08 07:57:41;;;;;;;;;;;;;;;;;;4996125;28;20468;-82
2024/04/08 08:00:08;;;;;;;;;;;;;;;;;;4998653;28;19974;-81
2024/04/08 08:02:34;;;;;;;;;;;;;;;;;;4999037;28;19993;-80
2024/04/08 08:05:01;;;;;;;;;;;;;;;;;;5002627;28;19972;-80
2024/04/08 08:07:27;;;;;;;;;;;;;;;;;;5011252;28;20044;-80
2024/04/08 08:09:54;;;;;;;;;;;;;;;;;;5014662;28;20008;-81
2024/04/08 08:12:21;;;;;;;;;;;;;;;;;;4998129;28;19994;-80
2024/04/08 08:14:48;;;;;;;;;;;;;;;;;;4998985;28;19984;-79
2024/04/08 08:17:14;;;;;;;;;;;;;;;;;;5015097;28;20000;-81
2024/04/08 08:19:41;;;;;;;;;;;;;;;;;;5005314;28;19973;-79
2024/04/08 08:22:08;;;;;;;;;;;;;;;;;;5011721;28;20060;-80
2024/04/08 08:24:36;;;;;;;;;;;;;;;;;;5002650;28;19987;-78
2024/04/08 08:27:03;;;;;;;;;;;;;;;;;;5000624;28;20346;-79
2024/04/08 08:29:30;;;;;;;;;;;;;;;;;;5006306;28;19989;-80
2024/04/08 08:31:57;;;;;;;;;;;;;;;;;;5001403;28;20069;-80
2024/04/08 08:34:24;;;;;;;;;;;;;;;;;;5002093;28;20036;-79
2024/04/08 08:36:50;;;;;;;;;;;;;;;;;;4999762;28;20064;-81
2024/04/08 08:39:17;;;;;;;;;;;;;;;;;;4995952;28;20031;-81
2024/04/08 08:41:43;;;;;;;;;;;;;;;;;;5010888;28;20083;-80
2024/04/08 08:44:10;;;;;;;;;;;;;;;;;;4996810;28;20326;-80
2024/04/08 08:46:36;;;;;;;;;;;;;;;;;;4995253;28;19978;-79
2024/04/08 08:49:03;;;;;;;;;;;;;;;;;;4995423;28;19990;-80
2024/04/08 08:51:30;;;;;;;;;;;;;;;;;;5007917;28;19989;-81
2024/04/08 08:53:56;;;;;;;;;;;;;;;;;;5001079;28;20041;-81
2024/04/08 08:56:23;;;;;;;;;;;;;;;;;;4999180;28;20000;-81
2024/04/08 08:58:50;;;;;;;;;;;;;;;;;;4999169;28;19985;-80
2024/04/08 09:01:17;;;;;;;;;;;;;;;;;;4998579;28;19982;-80
2024/04/08 09:03:43;;;;;;;;;;;;;;;;;;5005584;28;20053;-80
2024/04/08 09:06:10;;;;;;;;;;;;;;;;;;5009602;28;20024;-81
2024/04/08 09:08:36;;;;;;;;;;;;;;;;;;5005028;28;20015;-80
2024/04/08 09:11:03;;;;;;;;;;;;;;;;;;4999552;28;20017;-82
2024/04/08 09:13:29;;;;;;;;;;;;;;;;;;5000047;28;20065;-81
2024/04/08 09:15:56;;;;;;;;;;;;;;;;;;5005973;28;20379;-83
2024/04/08 09:18:22;;;;;;;;;;;;;;;;;;5014186;28;20391;-80
2024/04/08 09:20:49;;;;;;;;;;;;;;;;;;5018297;28;20016;-82
2024/04/08 09:23:15;;;;;;;;;;;;;;;;;;5017325;28;20411;-81
2024/04/08 09:25:42;;;;;;;;;;;;;;;;;;5017385;28;20001;-82
2024/04/08 09:28:09;;;;;;;;;;;;;;;;;;4997132;28;20000;-81
2024/04/08 09:30:36;;;;;;;;;;;;;;;;;;4998123;28;19981;-82
2024/04/08 09:33:02;;;;;;;;;;;;;;;;;;4998923;28;20081;-81
2024/04/08 09:35:29;;;;;;;;;;;;;;;;;;5010693;28;20017;-81
2024/04/08 09:37:56;;;;;;;;;;;;;;;;;;5000704;28;20406;-80
2024/04/08 09:40:22;;;;;;;;;;;;;;;;;;4997373;28;20521;-82
2024/04/08 09:42:49;;;;;;;;;;;;;;;;;;4997091;28;20021;-81
2024/04/08 09:45:15;;;;;;;;;;;;;;;;;;5012753;28;20341;-81
2024/04/08 09:47:42;;;;;;;;;;;;;;;;;;4996721;28;20023;-81
2024/04/08 09:50:08;;;;;;;;;;;;;;;;;;4997727;28;20116;-81
2024/04/08 09:52:36;;;;;;;;;;;;;;;;;;4996781;28;20001;-81
2024/04/08 09:55:01;;;;;;;;;;;;;;;;;;5013319;28;20333;-81
2024/04/08 09:57:29;;;;;;;;;;;;;;;;;;5009792;28;19977;-80
2024/04/08 09:59:56;;;;;;;;;;;;;;;;;;5000666;28;19981;-81
2024/04/08 10:02:23;;;;;;;;;;;;;;;;;;4999643;28;19989;-82
2024/04/08 10:04:49;;;;;;;;;;;;;;;;;;4998886;28;20075;-81
2024/04/08 10:07:16;;;;;;;;;;;;;;;;;;4996476;28;20013;-82
2024/04/08 10:09:42;;;;;;;;;;;;;;;;;;4997981;28;20099;-81
2024/04/08 10:12:09;;;;;;;;;;;;;;;;;;5016735;28;20362;-81
2024/04/08 10:14:35;;;;;;;;;;;;;;;;;;4998539;28;19996;-81
2024/04/08 10:17:02;;;;;;;;;;;;;;;;;;4998864;28;20434;-82
2024/04/08 10:19:28;;;;;;;;;;;;;;;;;;4997234;28;20456;-82
2024/04/08 10:21:55;;;;;;;;;;;;;;;;;;4998483;28;20099;-81
2024/04/08 10:24:21;;;;;;;;;;;;;;;;;;5013896;28;20007;-81
2024/04/08 10:26:48;;;;;;;;;;;;;;;;;;4999846;28;20012;-82
2024/04/08 10:29:14;;;;;;;;;;;;;;;;;;5015120;28;20545;-82
2024/04/08 10:31:41;;;;;;;;;;;;;;;;;;4999751;28;20017;-84
2024/04/08 10:34:07;;;;;;;;;;;;;;;;;;5002144;28;20049;-83
2024/04/08 10:36:36;;;;;;;;;;;;;;;;;;5003494;28;19973;-83
2024/04/08 10:39:08;;;;;;;;;;;;;;;;;;5001297;28;19984;-82
2024/04/08 10:41:35;;;;;;;;;;;;;;;;;;5017233;28;20080;-81
2024/04/08 10:44:01;;;;;;;;;;;;;;;;;;5017463;28;20040;-81
2024/04/08 10:46:28;;;;;;;;;;;;;;;;;;4999543;28;20012;-83
2024/04/08 10:48:54;;;;;;;;;;;;;;;;;;4998202;28;20060;-82
2024/04/08 10:51:20;;;;;;;;;;;;;;;;;;4998484;28;20415;-82
2024/04/08 10:53:46;;;;;;;;;;;;;;;;;;4998727;28;19978;-83
2024/04/08 10:56:13;;;;;;;;;;;;;;;;;;4997198;28;20031;-83
2024/04/08 10:58:39;;;;;;;;;;;;;;;;;;4997704;28;20077;-83
2024/04/08 11:01:07;;;;;;;;;;;;;;;;;;4999642;28;20037;-81
2024/04/08 11:03:33;;;;;;;;;;;;;;;;;;5003745;28;19984;-82
2024/04/08 11:06:00;;;;;;;;;;;;;;;;;;5010387;28;20014;-84
2024/04/08 11:08:27;;;;;;;;;;;;;;;;;;4997083;28;20432;-83
2024/04/08 11:10:55;;;;;;;;;;;;;;;;;;4998224;28;20039;-84
2024/04/08 11:13:21;;;;;;;;;;;;;;;;;;4997757;28;20070;-82
2024/04/08 11:15:48;;;;;;;;;;;;;;;;;;4998130;28;20449;-83
2024/04/08 11:18:14;;;;;;;;;;;;;;;;;;4996579;28;25145;-83
2024/04/08 11:20:41;;;;;;;;;;;;;;;;;;5000418;28;20033;-86
2024/04/08 11:23:07;;;;;;;;;;;;;;;;;;5013408;28;20477;-86
2024/04/08 11:25:34;;;;;;;;;;;;;;;;;;5023831;28;20039;-83
2024/04/08 11:28:00;;;;;;;;;;;;;;;;;;5021550;28;20026;-84
2024/04/08 11:30:34;;;;;;;;;;;;;;;;;;5020092;28;25106;-84
2024/04/08 11:33:00;;;;;;;;;;;;;;;;;;5020473;28;20123;-84
2024/04/08 11:35:27;;;;;;;;;;;;;;;;;;5001789;28;20407;-83
2024/04/08 11:37:53;;;;;;;;;;;;;;;;;;5000860;28;20017;-84
2024/04/08 11:40:20;;;;;;;;;;;;;;;;;;5000726;28;20053;-84
2024/04/08 11:42:46;;;;;;;;;;;;;;;;;;5000360;28;25102;-83
2024/04/08 11:45:13;;;;;;;;;;;;;;;;;;5000027;28;20081;-84
2024/04/08 11:47:39;;;;;;;;;;;;;;;;;;4999912;28;20011;-83
2024/04/08 11:50:07;;;;;;;;;;;;;;;;;;5000624;28;20012;-83
2024/04/08 11:52:33;;;;;;;;;;;;;;;;;;5001973;28;20027;-84
2024/04/08 11:55:00;;;;;;;;;;;;;;;;;;5010850;28;20108;-84
2024/04/08 11:57:26;;;;;;;;;;;;;;;;;;5009357;28;25111;-83
2024/04/08 11:59:53;;;;;;;;;;;;;;;;;;5019077;28;19997;-83
2024/04/08 12:02:20;;;;;;;;;;;;;;;;;;5014901;28;20043;-84
2024/04/08 12:04:46;;;;;;;;;;;;;;;;;;5016779;28;20083;-82
2024/04/08 12:07:13;;;;;;;;;;;;;;;;;;5007827;28;20045;-84
2024/04/08 12:09:41;;;;;;;;;;;;;;;;;;5003786;28;25109;-83
2024/04/08 12:12:09;;;;;;;;;;;;;;;;;;5001817;28;20031;-83
2024/04/08 12:14:35;;;;;;;;;;;;;;;;;;5017302;28;20056;-83
2024/04/08 12:17:02;;;;;;;;;;;;;;;;;;5019486;28;20024;-83
2024/04/08 12:19:28;;;;;;;;;;;;;;;;;;5019528;28;20013;-84
2024/04/08 12:21:55;;;;;;;;;;;;;;;;;;4999757;28;25064;-84
2024/04/08 12:24:21;;;;;;;;;;;;;;;;;;5015503;28;20013;-83
2024/04/08 12:26:49;;;;;;;;;;;;;;;;;;4998686;28;19969;-83
2024/04/08 12:29:15;;;;;;;;;;;;;;;;;;4999295;28;19994;-83
2024/04/08 12:31:42;;;;;;;;;;;;;;;;;;5000486;28;20657;-84
2024/04/08 12:34:08;;;;;;;;;;;;;;;;;;5001007;28;20105;-85
2024/04/08 12:36:35;;;;;;;;;;;;;;;;;;5016726;28;20001;-83
2024/04/08 12:39:01;;;;;;;;;;;;;;;;;;5004987;28;20052;-83
2024/04/08 12:41:28;;;;;;;;;;;;;;;;;;5002736;28;19982;-84
2024/04/08 12:43:54;;;;;;;;;;;;;;;;;;5001492;28;20068;-83
2024/04/08 12:46:21;;;;;;;;;;;;;;;;;;5003957;28;19970;-84
2024/04/08 12:48:47;;;;;;;;;;;;;;;;;;5003398;28;19993;-83
2024/04/08 12:51:14;;;;;;;;;;;;;;;;;;5010941;28;19986;-83
2024/04/08 12:53:40;;;;;;;;;;;;;;;;;;5011712;28;19979;-82
2024/04/08 12:56:09;;;;;;;;;;;;;;;;;;5009769;28;20344;-83
2024/04/08 12:58:35;;;;;;;;;;;;;;;;;;5008626;28;20036;-83
2024/04/08 13:01:02;;;;;;;;;;;;;;;;;;5015577;28;19969;-83
2024/04/08 13:03:28;;;;;;;;;;;;;;;;;;5005722;28;20337;-83
2024/04/08 13:05:55;;;;;;;;;;;;;;;;;;5008319;28;19993;-83
2024/04/08 13:08:21;;;;;;;;;;;;;;;;;;5009115;28;20441;-83
2024/04/08 13:10:48;;;;;;;;;;;;;;;;;;5010645;28;19997;-83
2024/04/08 13:13:14;;;;;;;;;;;;;;;;;;5012782;28;20004;-83
2024/04/08 13:15:41;;;;;;;;;;;;;;;;;;5010628;28;21156;-83
2024/04/08 13:18:07;;;;;;;;;;;;;;;;;;5009650;28;19965;-83
2024/04/08 13:20:33;;;;;;;;;;;;;;;;;;5007595;28;19965;-82
2024/04/08 13:22:59;;;;;;;;;;;;;;;;;;5012928;28;20088;-81
2024/04/08 13:25:26;;;;;;;;;;;;;;;;;;5016207;28;19969;-82
2024/04/08 13:27:53;;;;;;;;;;;;;;;;;;5006121;28;19972;-82
2024/04/08 13:30:20;;;;;;;;;;;;;;;;;;5013003;28;19977;-82
2024/04/08 13:32:46;;;;;;;;;;;;;;;;;;5008035;28;19981;-80
2024/04/08 13:35:12;;;;;;;;;;;;;;;;;;5008007;28;19966;-80
2024/04/08 13:37:43;;;;;;;;;;;;;;;;;;5008569;28;19972;-79
2024/04/08 13:40:11;;;;;;;;;;;;;;;;;;5005585;28;20012;-81
2024/04/08 13:42:37;;;;;;;;;;;;;;;;;;5006686;28;20084;-82
2024/04/08 13:45:04;;;;;;;;;;;;;;;;;;5009040;28;19968;-82
2024/04/08 13:47:30;;;;;;;;;;;;;;;;;;5008475;28;19974;-81
2024/04/08 13:49:59;;;;;;;;;;;;;;;;;;5009483;28;19981;-81
2024/04/08 13:52:25;;;;;;;;;;;;;;;;;;5007607;28;19990;-82
2024/04/08 13:54:52;;;;;;;;;;;;;;;;;;5010048;28;20369;-81
2024/04/08 13:57:18;;;;;;;;;;;;;;;;;;5011093;28;19970;-81
2024/04/08 13:59:45;;;;;;;;;;;;;;;;;;5009881;28;20025;-82
2024/04/08 14:02:12;;;;;;;;;;;;;;;;;;5012816;28;20015;-82
2024/04/08 14:04:38;;;;;;;;;;;;;;;;;;5010287;28;19965;-81
2024/04/08 14:07:06;;;;;;;;;;;;;;;;;;5009458;28;19969;-81
2024/04/08 14:09:33;;;;;;;;;;;;;;;;;;5008108;28;19993;-81
2024/04/08 14:11:59;;;;;;;;;;;;;;;;;;5007145;28;19989;-81
2024/04/08 14:14:26;;;;;;;;;;;;;;;;;;5008692;28;19970;-82
2024/04/08 14:16:53;;;;;;;;;;;;;;;;;;5006317;28;20064;-81
2024/04/08 14:19:19;;;;;;;;;;;;;;;;;;5010443;28;19988;-81
2024/04/08 14:21:45;;;;;;;;;;;;;;;;;;5007382;28;19986;-80
2024/04/08 14:24:12;;;;;;;;;;;;;;;;;;5006069;28;20004;-81
2024/04/08 14:26:38;;;;;;;;;;;;;;;;;;5010715;28;20065;-80
2024/04/08 14:29:05;;;;;;;;;;;;;;;;;;5012062;28;20021;-80
2024/04/08 14:31:31;;;;;;;;;;;;;;;;;;5006696;28;20061;-80
2024/04/08 14:33:58;;;;;;;;;;;;;;;;;;5010937;28;20009;-80
2024/04/08 14:36:24;;;;;;;;;;;;;;;;;;5011866;28;20019;-81
2024/04/08 14:38:51;;;;;;;;;;;;;;;;;;5007190;28;19969;-81
2024/04/08 14:41:17;;;;;;;;;;;;;;;;;;5009898;28;20059;-80
2024/04/08 14:43:46;;;;;;;;;;;;;;;;;;5000242;28;19974;-79
2024/04/08 14:46:12;;;;;;;;;;;;;;;;;;5000582;28;19977;-80
2024/04/08 14:48:39;;;;;;;;;;;;;;;;;;5001009;28;19966;-81
2024/04/08 14:51:05;;;;;;;;;;;;;;;;;;5008592;28;19969;-82
2024/04/08 14:53:33;;;;;;;;;;;;;;;;;;5014547;28;19969;-81
2024/04/08 14:55:59;;;;;;;;;;;;;;;;;;5011772;28;19965;-81
2024/04/08 14:58:25;;;;;;;;;;;;;;;;;;5008806;28;19967;-79
2024/04/08 15:00:51;;;;;;;;;;;;;;;;;;5007708;28;19970;-80
2024/04/08 15:03:18;;;;;;;;;;;;;;;;;;5011450;28;20004;-80
2024/04/08 15:05:44;;;;;;;;;;;;;;;;;;5019382;28;20064;-82
2024/04/08 15:08:12;;;;;;;;;;;;;;;;;;4992969;28;19996;-81
2024/04/08 15:13:48;;;;;;;;;;;;;;;;;;5014949;28;20499;-82
2024/04/08 15:16:14;;;;;;;;;;;;;;;;;;5013085;28;19984;-82
2024/04/08 15:18:41;;;;;;;;;;;;;;;;;;5010662;28;20065;-82
2024/04/08 15:21:07;;;;;;;;;;;;;;;;;;5014793;28;19997;-82
2024/04/08 15:23:34;;;;;;;;;;;;;;;;;;5015076;28;19992;-81
2024/04/08 15:26:00;;;;;;;;;;;;;;;;;;5010525;28;19973;-81
2024/04/08 15:28:27;;;;;;;;;;;;;;;;;;5013064;28;19976;-82
2024/04/08 15:30:53;;;;;;;;;;;;;;;;;;5013672;28;19965;-82
2024/04/08 15:33:21;;;;;;;;;;;;;;;;;;5016989;28;19976;-83
2024/04/08 15:35:47;;;;;;;;;;;;;;;;;;5002790;28;19973;-81
2024/04/08 15:38:14;;;;;;;;;;;;;;;;;;5020453;28;20068;-81
2024/04/08 15:40:40;;;;;;;;;;;;;;;;;;5013616;28;20028;-83
2024/04/08 15:43:07;;;;;;;;;;;;;;;;;;5024688;28;19981;-83
2024/04/08 15:45:33;;;;;;;;;;;;;;;;;;5030492;28;20012;-80
2024/04/08 15:48:01;;;;;;;;;;;;;;;;;;5026914;28;20093;-81
2024/04/08 15:50:27;;;;;;;;;;;;;;;;;;5020800;28;19999;-81
2024/04/08 15:52:54;;;;;;;;;;;;;;;;;;5018559;28;20419;-81
2024/04/08 15:55:20;;;;;;;;;;;;;;;;;;5006648;28;19969;-81
2024/04/08 15:57:48;;;;;;;;;;;;;;;;;;5012284;28;20447;-80
2024/04/08 16:00:14;;;;;;;;;;;;;;;;;;5009612;28;19965;-81
2024/04/08 16:02:44;;;;;;;;;;;;;;;;;;5017082;28;19992;-81
2024/04/08 16:05:10;;;;;;;;;;;;;;;;;;5015840;28;20009;-81
2024/04/08 16:07:37;;;;;;;;;;;;;;;;;;5012796;28;20429;-81
2024/04/08 16:10:03;;;;;;;;;;;;;;;;;;5019953;28;20038;-81
2024/04/08 16:12:30;;;;;;;;;;;;;;;;;;5020787;28;20017;-82
2024/04/08 16:14:56;;;;;;;;;;;;;;;;;;5017813;28;20064;-81
2024/04/08 16:17:23;;;;;;;;;;;;;;;;;;5019574;28;20008;-81
2024/04/08 16:19:49;;;;;;;;;;;;;;;;;;5006859;28;20045;-81
2024/04/08 16:22:16;;;;;;;;;;;;;;;;;;5010553;28;20028;-81
2024/04/08 16:24:42;;;;;;;;;;;;;;;;;;5010704;28;20045;-81
2024/04/08 16:27:09;;;;;;;;;;;;;;;;;;5008835;28;20464;-81
2024/04/08 16:29:35;;;;;;;;;;;;;;;;;;5006765;28;19985;-82
2024/04/08 16:32:03;;;;;;;;;;;;;;;;;;4999419;28;20438;-81
2024/04/08 16:34:29;;;;;;;;;;;;;;;;;;4998776;28;19970;-81
2024/04/08 16:36:57;;;;;;;;;;;;;;;;;;5006735;28;19992;-81
2024/04/08 16:39:23;;;;;;;;;;;;;;;;;;5008974;28;20025;-81
2024/04/08 16:41:49;;;;;;;;;;;;;;;;;;5005417;28;20011;-80
2024/04/08 16:44:15;;;;;;;;;;;;;;;;;;5007710;28;20124;-81